Norwegian Jade — C6WK7 — position and weather

sailwx.info

Track history (hours):
 
Tides and Currents Weather Stations Pressure Air Temp Water Temp Dewpoint Dewpoint Depression Visibility Wind Speed Wind Dir Waves Ship Positions

Norwegian Jade

Last reported at 2018-Oct-22 03:00 UTC. Time now 2018-Oct-22 22:33 UTC.
Position N 19°24' W 074°12'.

Length 294 m; draft 8.4 m.

Type: Passenger vessel. MMSI: 308416000.

Wind from 070 at 28 knots

Barometer 1004.1 mb
Air temperature 27.0 ° C
Visibility: greater than 10.8 NM
Dewpoint 22.6 ° C
Water temperature 28.0 ° C

Date/timePositionNaut miles runAvg speedWind from/ knotsBaromVisibWave heightAir tempDewpointWater temp
2018-Oct-22 03:00N 19°24' W 074°12'12818.3 070 / 281004.110.8 27.022.628.0
2018-Oct-21 20:00N 17°18' W 073°48'8316.6 100 / 8 27.0 29.029.024.0
2018-Oct-21 15:00N 16°18' W 072°48'7919.8 090 / 371005.110.8 27.024.129.0
2018-Oct-21 11:00N 15°18' W 071°54'15118.9 080 / 301013.110.8 27.027.028.0
2018-Oct-21 03:00N 13°24' W 070°12'97 5.1 070 / 331003.110.8 28.023.729.0
2018-Oct-20 08:00N 12°12' W 069°06'367081.6 200 / 10 27.0 25.025.023.0
2018-Oct-18 11:00N 12°18' W 006°30'3728466.1 090 / 181012.1 5.4 26.422.929.0
2018-Oct-18 03:00N 14°06' W 070°18'9616.0 090 / 161004.110.8 28.023.729.0
2018-Oct-17 21:00N 15°12' W 071°30'11716.6 070 / 231012.610.8 28.028.029.0
2018-Oct-17 14:00N 16°36' W 072°54'41215.9 090 / 271006.110.8 28.025.229.0
2018-Oct-16 12:00N 22°00' W 077°24'24618.7 090 / 221018.110.8 27.025.629.0
2018-Oct-15 22:50N 25°20' W 080°01'617.9
2018-Oct-15 22:30N 25°26' W 080°01'817.4
2018-Oct-15 22:03N 25°34' W 080°02'117.2
2018-Oct-15 22:00N 25°35' W 080°02'817.0
2018-Oct-15 21:30N 25°43' W 080°03'4 9.6
2018-Oct-15 21:03N 25°46' W 080°06'113.5
2018-Oct-15 21:00N 25°46' W 080°07'2 3.9
2018-Oct-15 20:23N 25°46' W 080°10'0 0.0
2018-Oct-15 20:02N 25°46' W 080°10'0 0.0
2018-Oct-15 19:53N 25°46' W 080°10'0 0.0
2018-Oct-15 19:26N 25°46' W 080°10'0 0.0
2018-Oct-15 19:02N 25°46' W 080°10'0 0.0
2018-Oct-15 18:59N 25°46' W 080°10'0 0.0
2018-Oct-15 18:29N 25°46' W 080°10'0 0.0
2018-Oct-15 17:59N 25°46' W 080°10'0 0.0
2018-Oct-15 17:26N 25°46' W 080°10'0 0.0
2018-Oct-15 16:56N 25°46' W 080°10'0 0.0
2018-Oct-15 16:29N 25°46' W 080°10'0 0.0
2018-Oct-15 16:02N 25°46' W 080°10'0 0.0
2018-Oct-15 15:59N 25°46' W 080°10'0 0.0
2018-Oct-15 15:29N 25°46' W 080°10'0 0.0
2018-Oct-15 14:59N 25°46' W 080°10'0 0.0
2018-Oct-15 14:29N 25°46' W 080°10'0 0.0
2018-Oct-15 13:59N 25°46' W 080°10'0 0.0
2018-Oct-15 13:29N 25°46' W 080°10'0 0.0
2018-Oct-15 13:02N 25°46' W 080°10'0 0.0
2018-Oct-15 12:59N 25°46' W 080°10'0 0.0
2018-Oct-15 12:29N 25°46' W 080°10'0 0.0
2018-Oct-15 12:02N 25°46' W 080°10'0 0.0
2018-Oct-15 11:59N 25°46' W 080°10'0 0.0
2018-Oct-15 11:29N 25°46' W 080°10'0 0.0
2018-Oct-15 11:02N 25°46' W 080°10'0 0.0
2018-Oct-15 10:59N 25°46' W 080°10'0 0.0
2018-Oct-15 10:29N 25°46' W 080°10'0 0.0
2018-Oct-15 10:02N 25°46' W 080°10'0 0.0
2018-Oct-15 09:59N 25°46' W 080°10'0 0.2
2018-Oct-15 09:30N 25°46' W 080°10'1 2.4
2018-Oct-15 09:03N 25°47' W 080°11'0 2.5
2018-Oct-15 09:01N 25°47' W 080°11'4 7.5
2018-Oct-15 08:30N 25°45' W 080°07'512.0
2018-Oct-15 08:03N 25°48' W 080°01'0 6.9
2018-Oct-15 08:00N 25°48' W 080°01'713.5
2018-Oct-15 07:30N 25°54' W 079°59'614.0
2018-Oct-15 07:03N 26°00' W 079°58'116.6
2018-Oct-15 07:00N 26°01' W 079°57'816.7
2018-Oct-15 06:30N 26°09' W 079°55'818.8
2018-Oct-15 06:03N 26°18' W 079°54'119.0
2018-Oct-15 06:00N 26°19' W 079°54'918.9
2018-Oct-15 05:30N 26°28' W 079°53'818.2
2018-Oct-15 05:03N 26°36' W 079°50'116.7
2018-Oct-15 04:58N 26°37' W 079°50'1016.8
2018-Oct-15 04:24N 26°47' W 079°48'616.8
2018-Oct-15 04:03N 26°52' W 079°47'116.6
2018-Oct-15 04:00N 26°53' W 079°46'816.6
2018-Oct-15 03:30N 27°01' W 079°45'14118.8
2018-Oct-14 20:00N 29°06' W 078°30'10417.3 090 / 10 27.027.022.0
2018-Oct-14 14:00N 30°36' W 077°30'5418.2 110 / 151012.127.0 26.016.428.0
2018-Oct-14 11:00N 31°24' W 077°00'13717.1 110 / 81020.110.8 25.023.528.0
2018-Oct-14 03:00N 33°24' W 075°42'9115.2 360 / 131011.127.0 23.016.520.0
2018-Oct-13 21:00N 34°48' W 075°00'1818.0 340 / 201016.110.8 22.011.328.0
2018-Oct-13 20:00N 35°06' W 075°00'9118.2 290 / 30 20.020.018.0
2018-Oct-13 15:00N 36°36' W 074°42'16921.2 330 / 101005.110.8 17.017.020.0
2018-Oct-13 07:01N 39°21' W 073°55'121.9
2018-Oct-13 06:59N 39°22' W 073°55'1021.4
2018-Oct-13 06:30N 39°32' W 073°52'1021.3
2018-Oct-13 06:03N 39°42' W 073°50'121.2
2018-Oct-13 06:00N 39°43' W 073°50'1021.1
2018-Oct-13 05:30N 39°53' W 073°49'1121.1
2018-Oct-13 04:57N 40°05' W 073°49'1520.8
2018-Oct-13 04:14N 40°20' W 073°49'418.2
2018-Oct-13 04:02N 40°23' W 073°48'117.7
2018-Oct-13 03:58N 40°24' W 073°48'613.8
2018-Oct-13 03:31N 40°29' W 073°54'817.7
2018-Oct-13 03:04N 40°34' W 074°02'119.2
2018-Oct-13 03:01N 40°35' W 074°02'714.6
2018-Oct-13 02:31N 40°42' W 074°02'4 8.2
2018-Oct-13 02:03N 40°46' W 073°60'0 1.1
2018-Oct-13 02:00N 40°46' W 073°60'0 0.0
2018-Oct-13 01:30N 40°46' W 073°60'0 0.0
2018-Oct-13 01:03N 40°46' W 073°60'0 0.0
2018-Oct-13 01:00N 40°46' W 073°60'0 0.0
2018-Oct-13 00:30N 40°46' W 073°60'0 0.0
2018-Oct-13 00:03N 40°46' W 073°60'0 0.0
2018-Oct-13 00:00N 40°46' W 073°60'0 0.0
2018-Oct-12 23:30N 40°46' W 073°60'0 0.0
2018-Oct-12 23:03N 40°46' W 073°60'0 0.0
2018-Oct-12 22:54N 40°46' W 073°60'0 0.0
2018-Oct-12 22:30N 40°46' W 073°60'0 0.0
2018-Oct-12 22:03N 40°46' W 073°60'0 0.0
2018-Oct-12 22:00N 40°46' W 073°60'0 0.0
2018-Oct-12 21:30N 40°46' W 073°60'0 0.0
2018-Oct-12 21:03N 40°46' W 073°60'0 0.0
2018-Oct-12 21:00N 40°46' W 073°60'0 0.0
2018-Oct-12 20:30N 40°46' W 073°60'0 0.0
2018-Oct-12 20:03N 40°46' W 073°60'0 0.0
2018-Oct-12 20:00N 40°46' W 073°60'0 0.0
2018-Oct-12 19:30N 40°46' W 073°60'0 0.0
2018-Oct-12 18:50N 40°46' W 073°60'0 0.0
2018-Oct-12 18:29N 40°46' W 073°60'0 0.0
2018-Oct-12 18:03N 40°46' W 073°60'0 0.0
2018-Oct-12 17:57N 40°46' W 073°60'0 0.0
2018-Oct-12 17:27N 40°46' W 073°60'0 0.0
2018-Oct-12 17:03N 40°46' W 073°60'0 0.1
2018-Oct-12 16:57N 40°46' W 073°60'0 0.0
2018-Oct-12 16:30N 40°46' W 073°60'0 0.0
2018-Oct-12 16:00N 40°46' W 073°60'0 0.0
2018-Oct-12 15:30N 40°46' W 073°60'0 0.0
2018-Oct-12 15:00N 40°46' W 073°60'0 0.0
2018-Oct-12 14:27N 40°46' W 073°60'0 0.0
2018-Oct-12 13:57N 40°46' W 073°60'0 0.0
2018-Oct-12 13:27N 40°46' W 073°60'0 0.0
2018-Oct-12 13:03N 40°46' W 073°60'0 0.0
2018-Oct-12 12:57N 40°46' W 073°60'0 0.0
2018-Oct-12 12:27N 40°46' W 073°60'0 0.0
2018-Oct-12 12:03N 40°46' W 073°60'0 0.0
2018-Oct-12 11:57N 40°46' W 073°60'0 0.3
2018-Oct-12 11:30N 40°46' W 074°00'1 2.2
2018-Oct-12 11:04N 40°45' W 074°01'0 6.1
2018-Oct-12 11:00N 40°45' W 074°01'5 9.6
2018-Oct-12 10:31N 40°40' W 074°03'613.3
2018-Oct-12 10:03N 40°34' W 074°02'115.2
2018-Oct-12 10:00N 40°34' W 074°02'714.2
2018-Oct-12 09:30N 40°29' W 073°55'612.1
2018-Oct-12 09:02N 40°27' W 073°48'0 3.9
2018-Oct-12 09:00N 40°27' W 073°47'5 8.9
2018-Oct-12 08:28N 40°28' W 073°41'511.3
2018-Oct-12 08:01N 40°28' W 073°35'111.6
2018-Oct-12 07:58N 40°28' W 073°34'611.6
2018-Oct-12 07:25N 40°28' W 073°25'  
Track history (hours):
 
Tides and Currents Weather Stations Pressure Air Temp Water Temp Dewpoint Dewpoint Depression Visibility Wind Speed Wind Dir Waves Ship Positions

Norwegian Jade

Last reported at 2018-Oct-22 03:00 UTC. Time now 2018-Oct-22 22:33 UTC.
Position N 19°24' W 074°12'.

Length 294 m; draft 8.4 m.

Type: Passenger vessel. MMSI: 308416000.

Wind from 070 at 28 knots

Barometer 1004.1 mb
Air temperature 27.0 ° C
Visibility: greater than 10.8 NM
Dewpoint 22.6 ° C
Water temperature 28.0 ° C

Date/timePositionNaut miles runAvg speedWind from/ knotsBaromVisibWave heightAir tempDewpointWater temp
2018-Oct-22 03:00N 19°24' W 074°12'12818.3 070 / 281004.110.8 27.022.628.0
2018-Oct-21 20:00N 17°18' W 073°48'8316.6 100 / 8 27.0 29.029.024.0
2018-Oct-21 15:00N 16°18' W 072°48'7919.8 090 / 371005.110.8 27.024.129.0
2018-Oct-21 11:00N 15°18' W 071°54'15118.9 080 / 301013.110.8 27.027.028.0
2018-Oct-21 03:00N 13°24' W 070°12'97 5.1 070 / 331003.110.8 28.023.729.0
2018-Oct-20 08:00N 12°12' W 069°06'367081.6 200 / 10 27.0 25.025.023.0
2018-Oct-18 11:00N 12°18' W 006°30'3728466.1 090 / 181012.1 5.4 26.422.929.0
2018-Oct-18 03:00N 14°06' W 070°18'9616.0 090 / 161004.110.8 28.023.729.0
2018-Oct-17 21:00N 15°12' W 071°30'11716.6 070 / 231012.610.8 28.028.029.0
2018-Oct-17 14:00N 16°36' W 072°54'41215.9 090 / 271006.110.8 28.025.229.0
2018-Oct-16 12:00N 22°00' W 077°24'24618.7 090 / 221018.110.8 27.025.629.0
2018-Oct-15 22:50N 25°20' W 080°01'617.9
2018-Oct-15 22:30N 25°26' W 080°01'817.4
2018-Oct-15 22:03N 25°34' W 080°02'117.2
2018-Oct-15 22:00N 25°35' W 080°02'817.0
2018-Oct-15 21:30N 25°43' W 080°03'4 9.6
2018-Oct-15 21:03N 25°46' W 080°06'113.5
2018-Oct-15 21:00N 25°46' W 080°07'2 3.9
2018-Oct-15 20:23N 25°46' W 080°10'0 0.0
2018-Oct-15 20:02N 25°46' W 080°10'0 0.0
2018-Oct-15 19:53N 25°46' W 080°10'0 0.0
2018-Oct-15 19:26N 25°46' W 080°10'0 0.0
2018-Oct-15 19:02N 25°46' W 080°10'0 0.0
2018-Oct-15 18:59N 25°46' W 080°10'0 0.0
2018-Oct-15 18:29N 25°46' W 080°10'0 0.0
2018-Oct-15 17:59N 25°46' W 080°10'0 0.0
2018-Oct-15 17:26N 25°46' W 080°10'0 0.0
2018-Oct-15 16:56N 25°46' W 080°10'0 0.0
2018-Oct-15 16:29N 25°46' W 080°10'0 0.0
2018-Oct-15 16:02N 25°46' W 080°10'0 0.0
2018-Oct-15 15:59N 25°46' W 080°10'0 0.0
2018-Oct-15 15:29N 25°46' W 080°10'0 0.0
2018-Oct-15 14:59N 25°46' W 080°10'0 0.0
2018-Oct-15 14:29N 25°46' W 080°10'0 0.0
2018-Oct-15 13:59N 25°46' W 080°10'0 0.0
2018-Oct-15 13:29N 25°46' W 080°10'0 0.0
2018-Oct-15 13:02N 25°46' W 080°10'0 0.0
2018-Oct-15 12:59N 25°46' W 080°10'0 0.0
2018-Oct-15 12:29N 25°46' W 080°10'0 0.0
2018-Oct-15 12:02N 25°46' W 080°10'0 0.0
2018-Oct-15 11:59N 25°46' W 080°10'0 0.0
2018-Oct-15 11:29N 25°46' W 080°10'0 0.0
2018-Oct-15 11:02N 25°46' W 080°10'0 0.0
2018-Oct-15 10:59N 25°46' W 080°10'0 0.0
2018-Oct-15 10:29N 25°46' W 080°10'0 0.0
2018-Oct-15 10:02N 25°46' W 080°10'0 0.0
2018-Oct-15 09:59N 25°46' W 080°10'0 0.2
2018-Oct-15 09:30N 25°46' W 080°10'1 2.4
2018-Oct-15 09:03N 25°47' W 080°11'0 2.5
2018-Oct-15 09:01N 25°47' W 080°11'4 7.5
2018-Oct-15 08:30N 25°45' W 080°07'512.0
2018-Oct-15 08:03N 25°48' W 080°01'0 6.9
2018-Oct-15 08:00N 25°48' W 080°01'713.5
2018-Oct-15 07:30N 25°54' W 079°59'614.0
2018-Oct-15 07:03N 26°00' W 079°58'116.6
2018-Oct-15 07:00N 26°01' W 079°57'816.7
2018-Oct-15 06:30N 26°09' W 079°55'818.8
2018-Oct-15 06:03N 26°18' W 079°54'119.0
2018-Oct-15 06:00N 26°19' W 079°54'918.9
2018-Oct-15 05:30N 26°28' W 079°53'818.2
2018-Oct-15 05:03N 26°36' W 079°50'116.7
2018-Oct-15 04:58N 26°37' W 079°50'1016.8
2018-Oct-15 04:24N 26°47' W 079°48'616.8
2018-Oct-15 04:03N 26°52' W 079°47'116.6
2018-Oct-15 04:00N 26°53' W 079°46'816.6
2018-Oct-15 03:30N 27°01' W 079°45'14118.8
2018-Oct-14 20:00N 29°06' W 078°30'10417.3 090 / 10 27.027.022.0
2018-Oct-14 14:00N 30°36' W 077°30'5418.2 110 / 151012.127.0 26.016.428.0
2018-Oct-14 11:00N 31°24' W 077°00'13717.1 110 / 81020.110.8 25.023.528.0
2018-Oct-14 03:00N 33°24' W 075°42'9115.2 360 / 131011.127.0 23.016.520.0
2018-Oct-13 21:00N 34°48' W 075°00'1818.0 340 / 201016.110.8 22.011.328.0
2018-Oct-13 20:00N 35°06' W 075°00'9118.2 290 / 30 20.020.018.0
2018-Oct-13 15:00N 36°36' W 074°42'16921.2 330 / 101005.110.8 17.017.020.0
2018-Oct-13 07:01N 39°21' W 073°55'121.9
2018-Oct-13 06:59N 39°22' W 073°55'1021.4
2018-Oct-13 06:30N 39°32' W 073°52'1021.3
2018-Oct-13 06:03N 39°42' W 073°50'121.2
2018-Oct-13 06:00N 39°43' W 073°50'1021.1
2018-Oct-13 05:30N 39°53' W 073°49'1121.1
2018-Oct-13 04:57N 40°05' W 073°49'1520.8
2018-Oct-13 04:14N 40°20' W 073°49'418.2
2018-Oct-13 04:02N 40°23' W 073°48'117.7
2018-Oct-13 03:58N 40°24' W 073°48'613.8
2018-Oct-13 03:31N 40°29' W 073°54'817.7
2018-Oct-13 03:04N 40°34' W 074°02'119.2
2018-Oct-13 03:01N 40°35' W 074°02'714.6
2018-Oct-13 02:31N 40°42' W 074°02'4 8.2
2018-Oct-13 02:03N 40°46' W 073°60'0 1.1
2018-Oct-13 02:00N 40°46' W 073°60'0 0.0
2018-Oct-13 01:30N 40°46' W 073°60'0 0.0
2018-Oct-13 01:03N 40°46' W 073°60'0 0.0
2018-Oct-13 01:00N 40°46' W 073°60'0 0.0
2018-Oct-13 00:30N 40°46' W 073°60'0 0.0
2018-Oct-13 00:03N 40°46' W 073°60'0 0.0
2018-Oct-13 00:00N 40°46' W 073°60'0 0.0
2018-Oct-12 23:30N 40°46' W 073°60'0 0.0
2018-Oct-12 23:03N 40°46' W 073°60'0 0.0
2018-Oct-12 22:54N 40°46' W 073°60'0 0.0
2018-Oct-12 22:30N 40°46' W 073°60'0 0.0
2018-Oct-12 22:03N 40°46' W 073°60'0 0.0
2018-Oct-12 22:00N 40°46' W 073°60'0 0.0
2018-Oct-12 21:30N 40°46' W 073°60'0 0.0
2018-Oct-12 21:03N 40°46' W 073°60'0 0.0
2018-Oct-12 21:00N 40°46' W 073°60'0 0.0
2018-Oct-12 20:30N 40°46' W 073°60'0 0.0
2018-Oct-12 20:03N 40°46' W 073°60'0 0.0
2018-Oct-12 20:00N 40°46' W 073°60'0 0.0
2018-Oct-12 19:30N 40°46' W 073°60'0 0.0
2018-Oct-12 18:50N 40°46' W 073°60'0 0.0
2018-Oct-12 18:29N 40°46' W 073°60'0 0.0
2018-Oct-12 18:03N 40°46' W 073°60'0 0.0
2018-Oct-12 17:57N 40°46' W 073°60'0 0.0
2018-Oct-12 17:27N 40°46' W 073°60'0 0.0
2018-Oct-12 17:03N 40°46' W 073°60'0 0.1
2018-Oct-12 16:57N 40°46' W 073°60'0 0.0
2018-Oct-12 16:30N 40°46' W 073°60'0 0.0
2018-Oct-12 16:00N 40°46' W 073°60'0 0.0
2018-Oct-12 15:30N 40°46' W 073°60'0 0.0
2018-Oct-12 15:00N 40°46' W 073°60'0 0.0
2018-Oct-12 14:27N 40°46' W 073°60'0 0.0
2018-Oct-12 13:57N 40°46' W 073°60'0 0.0
2018-Oct-12 13:27N 40°46' W 073°60'0 0.0
2018-Oct-12 13:03N 40°46' W 073°60'0 0.0
2018-Oct-12 12:57N 40°46' W 073°60'0 0.0
2018-Oct-12 12:27N 40°46' W 073°60'0 0.0
2018-Oct-12 12:03N 40°46' W 073°60'0 0.0
2018-Oct-12 11:57N 40°46' W 073°60'0 0.3
2018-Oct-12 11:30N 40°46' W 074°00'1 2.2
2018-Oct-12 11:04N 40°45' W 074°01'0 6.1
2018-Oct-12 11:00N 40°45' W 074°01'5 9.6
2018-Oct-12 10:31N 40°40' W 074°03'613.3
2018-Oct-12 10:03N 40°34' W 074°02'115.2
2018-Oct-12 10:00N 40°34' W 074°02'714.2
2018-Oct-12 09:30N 40°29' W 073°55'612.1
2018-Oct-12 09:02N 40°27' W 073°48'0 3.9
2018-Oct-12 09:00N 40°27' W 073°47'5 8.9
2018-Oct-12 08:28N 40°28' W 073°41'511.3
2018-Oct-12 08:01N 40°28' W 073°35'111.6
2018-Oct-12 07:58N 40°28' W 073°34'611.6
2018-Oct-12 07:25N 40°28' W 073°25'  

Dump ship's entire track history